Time;durP1;ratioP1;P1;durP2;ratioP2;P2;SDS_P1;SDS_P2;PMS_P1;PMS_P2;Temp;Humidity;BMP_temperature;BMP_pressure;BME280_temperature;BME280_humidity;BME280_pressure;Samples;Min_cycle;Max_cycle;Signal;HPM_P1;HPM_P2
2022/08/26 00:01:02;;;;;;;25.73;18.50;;;;;;;;;;5094811;28;20466;-75
2022/08/26 00:03:30;;;;;;;29.67;16.50;;;;;;;;;;5094381;28;20863;-75
2022/08/26 00:05:57;;;;;;;25.77;16.23;;;;;;;;;;5094687;28;20577;-75
2022/08/26 00:08:24;;;;;;;29.27;17.63;;;;;;;;;;5094528;28;20439;-75
2022/08/26 00:10:51;;;;;;;26.93;16.97;;;;;;;;;;5094620;28;20517;-75
2022/08/26 00:13:18;;;;;;;26.70;18.27;;;;;;;;;;5094197;28;20833;-75
2022/08/26 00:15:49;;;;;;;35.27;19.23;;;;;;;;;;5094518;28;20458;-75
2022/08/26 00:18:16;;;;;;;23.83;17.40;;;;;;;;;;5094506;28;20521;-75
2022/08/26 00:20:43;;;;;;;24.83;19.20;;;;;;;;;;5094724;28;20443;-75
2022/08/26 00:23:10;;;;;;;22.07;16.37;;;;;;;;;;5094417;28;20478;-75
2022/08/26 00:25:38;;;;;;;27.10;18.00;;;;;;;;;;5093962;28;20491;-75
2022/08/26 00:28:05;;;;;;;23.83;15.97;;;;;;;;;;5094479;28;20446;-75
2022/08/26 00:30:33;;;;;;;23.33;16.57;;;;;;;;;;5093960;28;20461;-75
2022/08/26 00:33:03;;;;;;;28.00;17.23;;;;;;;;;;5094217;28;20933;-75
2022/08/26 00:35:30;;;;;;;21.37;16.40;;;;;;;;;;5093947;28;20443;-75
2022/08/26 00:37:58;;;;;;;19.83;15.10;;;;;;;;;;5094221;28;20450;-75
2022/08/26 00:40:27;;;;;;;20.83;14.87;;;;;;;;;;5094204;28;20839;-75
2022/08/26 00:42:54;;;;;;;20.63;15.37;;;;;;;;;;5094110;28;20451;-75
2022/08/26 00:45:22;;;;;;;20.40;15.20;;;;;;;;;;5093771;28;20849;-74
2022/08/26 00:47:52;;;;;;;24.43;15.63;;;;;;;;;;5094047;28;20450;-74
2022/08/26 00:50:23;;;;;;;17.13;14.50;;;;;;;;;;5093792;28;20458;-74
2022/08/26 00:52:51;;;;;;;20.47;14.70;;;;;;;;;;5093807;28;20815;-74
2022/08/26 00:55:19;;;;;;;21.47;15.50;;;;;;;;;;5093525;28;20450;-74
2022/08/26 00:57:47;;;;;;;20.70;16.30;;;;;;;;;;5093799;28;20457;-74
2022/08/26 01:00:16;;;;;;;18.40;14.70;;;;;;;;;;5093732;28;20533;-74
2022/08/26 01:02:43;;;;;;;20.77;15.87;;;;;;;;;;5093461;28;20458;-75
2022/08/26 01:05:11;;;;;;;27.90;15.73;;;;;;;;;;5093365;28;20486;-75
2022/08/26 01:07:40;;;;;;;20.47;16.20;;;;;;;;;;5093581;28;20459;-75
2022/08/26 01:10:10;;;;;;;18.93;14.57;;;;;;;;;;5093530;28;20568;-75
2022/08/26 01:12:40;;;;;;;18.10;15.67;;;;;;;;;;5093652;28;20458;-75
2022/08/26 01:15:09;;;;;;;21.33;15.73;;;;;;;;;;5092803;28;20969;-75
2022/08/26 01:17:37;;;;;;;24.83;14.60;;;;;;;;;;5093319;28;20938;-75
2022/08/26 01:20:10;;;;;;;31.97;19.37;;;;;;;;;;5093656;28;20829;-75
2022/08/26 01:22:44;;;;;;;22.47;16.33;;;;;;;;;;5093239;28;20842;-75
2022/08/26 01:25:11;;;;;;;30.77;18.20;;;;;;;;;;5093046;28;20493;-75
2022/08/26 01:27:39;;;;;;;28.20;17.33;;;;;;;;;;5093207;28;20520;-75
2022/08/26 01:30:07;;;;;;;24.63;17.93;;;;;;;;;;5093391;28;20931;-75
2022/08/26 01:32:35;;;;;;;25.33;17.40;;;;;;;;;;5093174;28;20454;-75
2022/08/26 01:35:02;;;;;;;21.43;16.17;;;;;;;;;;5092992;28;20979;-75
2022/08/26 01:37:33;;;;;;;25.43;16.20;;;;;;;;;;5093042;28;20932;-75
2022/08/26 01:40:01;;;;;;;24.90;16.37;;;;;;;;;;5093240;28;20451;-75
2022/08/26 01:42:29;;;;;;;25.43;17.80;;;;;;;;;;5092232;28;20490;-74
2022/08/26 01:44:58;;;;;;;24.73;16.87;;;;;;;;;;5092661;28;20490;-74
2022/08/26 01:47:27;;;;;;;22.63;16.27;;;;;;;;;;5092937;28;20936;-74
2022/08/26 01:49:56;;;;;;;28.10;17.83;;;;;;;;;;5093040;28;20477;-74
2022/08/26 01:52:24;;;;;;;23.53;17.50;;;;;;;;;;5092896;28;20809;-74
2022/08/26 01:54:52;;;;;;;22.10;17.00;;;;;;;;;;5092706;28;20983;-75
2022/08/26 01:57:21;;;;;;;18.33;15.70;;;;;;;;;;5092862;28;20458;-75
2022/08/26 01:59:49;;;;;;;38.07;25.97;;;;;;;;;;5093060;28;20956;-75
2022/08/26 02:02:16;;;;;;;24.80;18.33;;;;;;;;;;5092842;28;20458;-75
2022/08/26 02:04:47;;;;;;;26.20;17.03;;;;;;;;;;5092556;28;20470;-75
2022/08/26 02:07:14;;;;;;;26.37;18.70;;;;;;;;;;5092871;28;20884;-75
2022/08/26 02:09:42;;;;;;;32.20;17.80;;;;;;;;;;5092738;28;20813;-75
2022/08/26 02:12:11;;;;;;;27.17;17.40;;;;;;;;;;5092901;28;20948;-75
2022/08/26 02:14:41;;;;;;;23.70;15.87;;;;;;;;;;5091867;28;20979;-75
2022/08/26 02:17:09;;;;;;;22.03;15.53;;;;;;;;;;5092898;28;20852;-75
2022/08/26 02:19:37;;;;;;;24.00;15.73;;;;;;;;;;5092782;28;20450;-75
2022/08/26 02:22:06;;;;;;;21.80;15.60;;;;;;;;;;5092653;28;20469;-75
2022/08/26 02:24:47;;;;;;;22.43;16.30;;;;;;;;;;5092385;28;20474;-75
2022/08/26 02:27:15;;;;;;;21.83;16.03;;;;;;;;;;5092703;28;20496;-75
2022/08/26 02:29:46;;;;;;;19.10;15.30;;;;;;;;;;5092638;28;20452;-75
2022/08/26 02:32:13;;;;;;;24.83;14.80;;;;;;;;;;5092645;28;20464;-75
2022/08/26 02:34:40;;;;;;;23.87;16.03;;;;;;;;;;5092297;28;20466;-75
2022/08/26 02:37:09;;;;;;;19.40;14.97;;;;;;;;;;5092483;28;20442;-75
2022/08/26 02:39:37;;;;;;;21.80;16.27;;;;;;;;;;5092386;28;20812;-75
2022/08/26 02:42:04;;;;;;;17.97;13.53;;;;;;;;;;5092723;28;20446;-75
2022/08/26 02:44:32;;;;;;;22.90;15.90;;;;;;;;;;5092138;28;20470;-75
2022/08/26 02:47:00;;;;;;;17.90;14.60;;;;;;;;;;5092421;28;20512;-75
2022/08/26 02:49:29;;;;;;;17.33;14.37;;;;;;;;;;5092368;28;20451;-75
2022/08/26 02:51:56;;;;;;;22.73;15.70;;;;;;;;;;5092449;28;20447;-75
2022/08/26 02:54:24;;;;;;;22.30;15.87;;;;;;;;;;5093808;28;20470;-75
2022/08/26 02:56:51;;;;;;;21.90;14.83;;;;;;;;;;5096332;28;20494;-75
2022/08/26 02:59:18;;;;;;;32.00;15.57;;;;;;;;;;5095866;28;20450;-74
2022/08/26 03:01:46;;;;;;;22.40;14.90;;;;;;;;;;5096165;28;20461;-74
2022/08/26 03:04:14;;;;;;;20.43;16.00;;;;;;;;;;5095655;28;20482;-75
2022/08/26 03:06:42;;;;;;;20.47;14.57;;;;;;;;;;5095755;28;20479;-75
2022/08/26 03:09:09;;;;;;;20.20;15.03;;;;;;;;;;5095898;28;20454;-75
2022/08/26 03:11:37;;;;;;;20.97;15.10;;;;;;;;;;5096103;28;20829;-75
2022/08/26 03:14:04;;;;;;;22.13;14.50;;;;;;;;;;5095039;28;20485;-75
2022/08/26 03:16:32;;;;;;;20.83;14.43;;;;;;;;;;5095870;28;20446;-75
2022/08/26 03:19:01;;;;;;;19.30;13.97;;;;;;;;;;5095702;28;20458;-75
2022/08/26 03:21:30;;;;;;;21.73;16.37;;;;;;;;;;5095501;28;20857;-75
2022/08/26 03:23:57;;;;;;;20.90;14.00;;;;;;;;;;5095258;28;20473;-75
2022/08/26 03:26:24;;;;;;;20.53;15.87;;;;;;;;;;5095377;28;21023;-75
2022/08/26 03:31:47;;;;;;;21.23;14.97;;;;;;;;;;5033194;28;20476;-75
2022/08/26 03:34:14;;;;;;;18.77;13.90;;;;;;;;;;5080283;28;20477;-75
2022/08/26 03:36:43;;;;;;;20.97;14.17;;;;;;;;;;5095322;28;20446;-75
2022/08/26 03:39:11;;;;;;;18.50;14.50;;;;;;;;;;5095423;28;20443;-75
2022/08/26 03:41:38;;;;;;;17.87;15.57;;;;;;;;;;5095260;28;20447;-75
2022/08/26 03:44:06;;;;;;;22.27;15.10;;;;;;;;;;5094940;28;20463;-75
2022/08/26 03:46:34;;;;;;;22.40;14.27;;;;;;;;;;5094954;28;20497;-75
2022/08/26 03:49:01;;;;;;;19.00;14.20;;;;;;;;;;5095159;28;20457;-75
2022/08/26 03:51:30;;;;;;;20.17;14.97;;;;;;;;;;5095116;28;20497;-75
2022/08/26 03:53:59;;;;;;;20.40;15.33;;;;;;;;;;5094869;28;20470;-75
2022/08/26 03:56:27;;;;;;;19.27;14.37;;;;;;;;;;5095018;28;20453;-75
2022/08/26 03:58:54;;;;;;;31.03;15.70;;;;;;;;;;5094868;28;20529;-75
2022/08/26 04:01:21;;;;;;;20.10;15.10;;;;;;;;;;5094927;28;20955;-75
2022/08/26 04:03:58;;;;;;;18.63;15.00;;;;;;;;;;5094633;28;20470;-75
2022/08/26 04:06:25;;;;;;;21.97;15.40;;;;;;;;;;5094107;28;20493;-75
2022/08/26 04:08:54;;;;;;;20.43;16.57;;;;;;;;;;5094890;28;20470;-74
2022/08/26 04:11:23;;;;;;;20.60;15.43;;;;;;;;;;5094631;28;20455;-74
2022/08/26 04:13:50;;;;;;;26.27;16.30;;;;;;;;;;5094049;28;20976;-74
2022/08/26 04:16:18;;;;;;;20.40;15.20;;;;;;;;;;5094591;28;20469;-74
2022/08/26 04:18:45;;;;;;;20.90;15.63;;;;;;;;;;5094505;28;20462;-74
2022/08/26 04:21:12;;;;;;;25.40;16.57;;;;;;;;;;5094437;28;20836;-74
2022/08/26 04:23:40;;;;;;;21.43;19.00;;;;;;;;;;5094258;28;20980;-74
2022/08/26 04:26:07;;;;;;;20.30;15.50;;;;;;;;;;5094364;28;21133;-74
2022/08/26 04:28:36;;;;;;;21.07;14.00;;;;;;;;;;5094323;28;20462;-74
2022/08/26 04:31:03;;;;;;;16.80;13.60;;;;;;;;;;5094364;28;20936;-74
2022/08/26 04:33:30;;;;;;;21.10;14.60;;;;;;;;;;5093893;28;20470;-74
2022/08/26 04:36:01;;;;;;;17.20;13.57;;;;;;;;;;5094242;28;20936;-74
2022/08/26 04:38:28;;;;;;;22.57;15.60;;;;;;;;;;5093972;28;20451;-74
2022/08/26 04:40:56;;;;;;;23.20;17.87;;;;;;;;;;5094221;28;20458;-75
2022/08/26 04:43:29;;;;;;;23.23;17.17;;;;;;;;;;5093834;28;20480;-75
2022/08/26 04:45:58;;;;;;;22.53;15.27;;;;;;;;;;5093838;28;20482;-75
2022/08/26 04:48:27;;;;;;;20.13;15.37;;;;;;;;;;5093927;28;20447;-75
2022/08/26 04:50:54;;;;;;;26.37;14.73;;;;;;;;;;5093937;28;20947;-75
2022/08/26 04:53:21;;;;;;;22.87;16.90;;;;;;;;;;5093785;28;20471;-75
2022/08/26 04:55:49;;;;;;;22.30;16.90;;;;;;;;;;5093820;28;20807;-75
2022/08/26 04:58:16;;;;;;;24.43;15.90;;;;;;;;;;5093695;28;20450;-75
2022/08/26 05:00:44;;;;;;;25.07;15.77;;;;;;;;;;5093915;28;20947;-75
2022/08/26 05:03:12;;;;;;;20.67;15.10;;;;;;;;;;5093647;28;20481;-75
2022/08/26 05:05:41;;;;;;;28.20;16.33;;;;;;;;;;5093286;28;20451;-75
2022/08/26 05:08:08;;;;;;;22.20;14.13;;;;;;;;;;5093742;28;20898;-74
2022/08/26 05:10:39;;;;;;;20.03;14.67;;;;;;;;;;5093476;28;20500;-75
2022/08/26 05:13:06;;;;;;;17.43;13.23;;;;;;;;;;5093073;28;20471;-75
2022/08/26 05:15:34;;;;;;;19.43;13.03;;;;;;;;;;5093441;28;20951;-75
2022/08/26 05:18:02;;;;;;;16.93;11.97;;;;;;;;;;5092498;28;20447;-75
2022/08/26 05:20:31;;;;;;;21.17;11.40;;;;;;;;;;5093240;28;20457;-75
2022/08/26 05:22:59;;;;;;;20.77;12.10;;;;;;;;;;5093029;28;20478;-75
2022/08/26 05:25:26;;;;;;;13.47;11.10;;;;;;;;;;5092950;28;20454;-75
2022/08/26 05:27:53;;;;;;;19.17;12.30;;;;;;;;;;5093276;28;20863;-75
2022/08/26 05:30:21;;;;;;;18.00;13.47;;;;;;;;;;5093226;28;20486;-75
2022/08/26 05:32:48;;;;;;;16.97;12.57;;;;;;;;;;5093188;28;20802;-75
2022/08/26 05:35:15;;;;;;;15.13;10.90;;;;;;;;;;5093063;28;20951;-75
2022/08/26 05:37:44;;;;;;;14.60;11.50;;;;;;;;;;5093072;28;20457;-75
2022/08/26 05:40:11;;;;;;;12.63;11.10;;;;;;;;;;5093150;28;20454;-75
2022/08/26 05:42:39;;;;;;;14.87;10.80;;;;;;;;;;5092972;28;20454;-75
2022/08/26 05:45:06;;;;;;;16.07;12.23;;;;;;;;;;5092922;28;20558;-75
2022/08/26 05:47:33;;;;;;;12.63;11.43;;;;;;;;;;5092894;28;20967;-75
2022/08/26 05:50:04;;;;;;;13.70;10.53;;;;;;;;;;5093097;28;20465;-75
2022/08/26 05:52:31;;;;;;;13.83;10.90;;;;;;;;;;5092954;28;20447;-75
2022/08/26 05:54:59;;;;;;;15.60;11.13;;;;;;;;;;5092785;28;20474;-75
2022/08/26 05:57:28;;;;;;;13.43;10.60;;;;;;;;;;5092822;28;20451;-75
2022/08/26 05:59:55;;;;;;;12.13;10.67;;;;;;;;;;5092869;28;20457;-75
2022/08/26 06:02:22;;;;;;;11.77;9.57;;;;;;;;;;5092838;28;20447;-75
2022/08/26 06:04:50;;;;;;;16.20;10.10;;;;;;;;;;5092599;28;21008;-75
2022/08/26 06:08:09;;;;;;;13.37;9.80;;;;;;;;;;5092680;28;20497;-75
2022/08/26 06:10:06;;;;;;;15.47;10.90;;;;;;;;;;5092673;28;20788;-76
2022/08/26 06:12:34;;;;;;;12.37;9.60;;;;;;;;;;5092792;28;20489;-75
2022/08/26 06:15:01;;;;;;;13.47;9.17;;;;;;;;;;5092520;28;20475;-75
2022/08/26 06:17:28;;;;;;;11.10;8.60;;;;;;;;;;5092641;28;21041;-75
2022/08/26 06:19:55;;;;;;;11.80;9.23;;;;;;;;;;5092730;28;20497;-75
2022/08/26 06:27:54;;;;;;;16.13;9.43;;;;;;;;;;5092618;28;20481;-75
2022/08/26 06:30:21;;;;;;;13.67;10.30;;;;;;;;;;5095877;28;20453;-75
2022/08/26 06:32:48;;;;;;;9.90;8.90;;;;;;;;;;5096554;28;20454;-75
2022/08/26 06:35:15;;;;;;;10.90;9.80;;;;;;;;;;5096320;28;20454;-75
2022/08/26 06:37:42;;;;;;;15.63;9.70;;;;;;;;;;5096660;28;20948;-75
2022/08/26 06:40:11;;;;;;;10.33;9.10;;;;;;;;;;5096506;28;20451;-75
2022/08/26 06:42:39;;;;;;;10.33;9.20;;;;;;;;;;5096201;28;20450;-75
2022/08/26 06:45:06;;;;;;;13.60;11.53;;;;;;;;;;5096365;28;20808;-75
2022/08/26 06:47:34;;;;;;;14.87;12.00;;;;;;;;;;5096067;28;20490;-75
2022/08/26 06:50:01;;;;;;;14.03;11.50;;;;;;;;;;5096271;28;20450;-75
2022/08/26 06:52:28;;;;;;;17.93;10.50;;;;;;;;;;5096227;28;20450;-75
2022/08/26 06:54:55;;;;;;;20.47;12.07;;;;;;;;;;5095819;28;20475;-75
2022/08/26 06:57:24;;;;;;;16.40;11.40;;;;;;;;;;5096152;28;20446;-75
2022/08/26 06:59:51;;;;;;;16.37;12.47;;;;;;;;;;5096149;28;20533;-76
2022/08/26 07:02:18;;;;;;;15.97;12.90;;;;;;;;;;5096082;28;20447;-75
2022/08/26 07:04:45;;;;;;;17.97;14.80;;;;;;;;;;5095821;28;20481;-75
2022/08/26 07:07:14;;;;;;;17.83;13.93;;;;;;;;;;5095833;28;20490;-75
2022/08/26 07:09:41;;;;;;;19.73;13.73;;;;;;;;;;5095813;28;20526;-75
2022/08/26 07:12:08;;;;;;;20.70;12.77;;;;;;;;;;5095975;28;20442;-75
2022/08/26 07:14:37;;;;;;;16.63;11.77;;;;;;;;;;5095260;28;20544;-75
2022/08/26 07:17:04;;;;;;;16.70;12.70;;;;;;;;;;5095869;28;20796;-75
2022/08/26 07:19:31;;;;;;;24.00;12.83;;;;;;;;;;5095695;28;20462;-75
2022/08/26 07:21:58;;;;;;;19.53;13.10;;;;;;;;;;5095625;28;20463;-75
2022/08/26 07:24:25;;;;;;;14.37;12.87;;;;;;;;;;5095571;28;20845;-75
2022/08/26 07:26:52;;;;;;;14.37;11.47;;;;;;;;;;5095968;28;20482;-75
2022/08/26 07:29:20;;;;;;;16.40;12.87;;;;;;;;;;5087778;28;20489;-75
2022/08/26 07:31:48;;;;;;;17.83;11.70;;;;;;;;;;5084820;28;20953;-75
2022/08/26 07:34:16;;;;;;;17.63;12.87;;;;;;;;;;5086012;28;20885;-75
2022/08/26 07:36:43;;;;;;;15.90;11.00;;;;;;;;;;5095331;28;20866;-75
2022/08/26 07:39:10;;;;;;;15.50;11.90;;;;;;;;;;5095414;28;20464;-75
2022/08/26 07:41:37;;;;;;;15.83;11.20;;;;;;;;;;5094145;28;20447;-75
2022/08/26 07:44:04;;;;;;;13.23;10.30;;;;;;;;;;5095091;28;20474;-75
2022/08/26 07:46:32;;;;;;;13.20;11.50;;;;;;;;;;5095127;28;20455;-75
2022/08/26 07:49:00;;;;;;;20.90;12.87;;;;;;;;;;5095200;28;20449;-75
2022/08/26 07:51:28;;;;;;;14.20;11.43;;;;;;;;;;5095190;28;20474;-75
2022/08/26 07:53:55;;;;;;;19.50;13.13;;;;;;;;;;5094861;28;20474;-75
2022/08/26 07:56:23;;;;;;;19.03;13.17;;;;;;;;;;5094894;28;20446;-75
2022/08/26 07:58:50;;;;;;;15.83;11.63;;;;;;;;;;5094992;28;20459;-75
2022/08/26 08:01:17;;;;;;;17.80;11.33;;;;;;;;;;5094981;28;20443;-75
2022/08/26 08:03:44;;;;;;;15.03;12.07;;;;;;;;;;5094623;28;21002;-75
2022/08/26 08:06:13;;;;;;;16.00;12.30;;;;;;;;;;5094809;28;20458;-75
2022/08/26 08:08:40;;;;;;;17.80;13.93;;;;;;;;;;5094684;28;20494;-75
2022/08/26 08:11:07;;;;;;;18.90;13.63;;;;;;;;;;5094766;28;20450;-75
2022/08/26 08:13:34;;;;;;;19.93;13.40;;;;;;;;;;5094047;28;20473;-75
2022/08/26 08:16:01;;;;;;;14.40;11.53;;;;;;;;;;5094733;28;20446;-75
2022/08/26 08:18:28;;;;;;;19.30;13.17;;;;;;;;;;5094469;28;20458;-75
2022/08/26 08:20:56;;;;;;;16.33;12.83;;;;;;;;;;5094544;28;20466;-75
2022/08/26 08:23:25;;;;;;;18.53;14.10;;;;;;;;;;5094336;28;20972;-75
2022/08/26 08:26:00;;;;;;;21.43;13.87;;;;;;;;;;5094451;28;20451;-75
2022/08/26 08:28:27;;;;;;;17.83;12.13;;;;;;;;;;5094553;28;20486;-75
2022/08/26 08:30:54;;;;;;;18.00;12.07;;;;;;;;;;5094367;28;20461;-75
2022/08/26 08:33:21;;;;;;;16.23;14.60;;;;;;;;;;5094310;28;21022;-75
2022/08/26 08:35:49;;;;;;;18.70;11.87;;;;;;;;;;5094172;28;20446;-75
2022/08/26 08:38:16;;;;;;;19.23;10.87;;;;;;;;;;5094263;28;20499;-75
2022/08/26 08:40:45;;;;;;;17.63;12.20;;;;;;;;;;5094090;28;20462;-75
2022/08/26 08:43:13;;;;;;;16.13;10.20;;;;;;;;;;5093993;28;20478;-75
2022/08/26 08:45:43;;;;;;;13.80;11.40;;;;;;;;;;5093817;28;20451;-75
2022/08/26 08:48:13;;;;;;;13.03;11.57;;;;;;;;;;5093976;28;20495;-75
2022/08/26 08:50:43;;;;;;;14.77;10.73;;;;;;;;;;5094213;28;20442;-75
2022/08/26 08:53:13;;;;;;;14.10;8.60;;;;;;;;;;5093937;28;21013;-75
2022/08/26 08:55:57;;;;;;;20.10;12.20;;;;;;;;;;5093715;28;20458;-75
2022/08/26 08:58:27;;;;;;;12.30;10.33;;;;;;;;;;5093885;28;20443;-73
2022/08/26 09:00:58;;;;;;;15.70;11.50;;;;;;;;;;5093720;28;20459;-73
2022/08/26 09:03:31;;;;;;;13.07;9.60;;;;;;;;;;5093685;28;20470;-73
2022/08/26 09:05:59;;;;;;;12.27;9.17;;;;;;;;;;5093716;28;20462;-74
2022/08/26 09:08:30;;;;;;;12.43;10.60;;;;;;;;;;5093409;28;20489;-74
2022/08/26 09:11:00;;;;;;;14.53;9.97;;;;;;;;;;5093769;28;20454;-74
2022/08/26 09:13:28;;;;;;;14.37;10.53;;;;;;;;;;5092487;28;20493;-74
2022/08/26 09:16:01;;;;;;;13.87;9.83;;;;;;;;;;5093455;28;20455;-74
2022/08/26 09:18:32;;;;;;;10.00;9.00;;;;;;;;;;5093354;28;20447;-74
2022/08/26 09:21:02;;;;;;;13.20;9.73;;;;;;;;;;5093404;28;20465;-74
2022/08/26 09:23:30;;;;;;;15.30;11.27;;;;;;;;;;5093171;28;20611;-74
2022/08/26 09:26:00;;;;;;;12.10;9.40;;;;;;;;;;5093416;28;20442;-74
2022/08/26 09:28:28;;;;;;;9.27;8.40;;;;;;;;;;5093258;28;20497;-73
2022/08/26 09:31:02;;;;;;;11.57;8.57;;;;;;;;;;5093271;28;20454;-74
2022/08/26 09:33:31;;;;;;;16.17;9.33;;;;;;;;;;5092923;28;20481;-74
2022/08/26 09:36:13;;;;;;;11.17;9.77;;;;;;;;;;5093256;28;20951;-74
2022/08/26 09:38:40;;;;;;;13.37;10.40;;;;;;;;;;5093083;28;20457;-74
2022/08/26 09:41:22;;;;;;;10.70;9.67;;;;;;;;;;5093228;28;20451;-75
2022/08/26 09:44:08;;;;;;;15.47;9.40;;;;;;;;;;5092862;28;20482;-74
2022/08/26 09:46:35;;;;;;;14.43;9.20;;;;;;;;;;5092997;28;20459;-74
2022/08/26 09:49:21;;;;;;;10.57;8.40;;;;;;;;;;5093014;28;20999;-74
2022/08/26 09:51:48;;;;;;;15.47;8.03;;;;;;;;;;5093165;28;20553;-75
2022/08/26 09:54:25;;;;;;;11.27;8.90;;;;;;;;;;5092767;28;20466;-74
2022/08/26 09:57:10;;;;;;;12.97;9.67;;;;;;;;;;5093034;28;20446;-75
2022/08/26 09:59:37;;;;;;;13.87;9.17;;;;;;;;;;5092850;28;20484;-74
2022/08/26 10:02:16;;;;;;;11.30;7.20;;;;;;;;;;5093017;28;20454;-74
2022/08/26 10:04:50;;;;;;;11.10;9.03;;;;;;;;;;5094990;28;20481;-75
2022/08/26 10:07:34;;;;;;;12.33;8.77;;;;;;;;;;5097164;28;20465;-75
2022/08/26 10:10:02;;;;;;;8.40;6.80;;;;;;;;;;5097231;28;20516;-76
2022/08/26 10:12:33;;;;;;;11.10;6.97;;;;;;;;;;5097013;28;20455;-77
2022/08/26 10:15:03;;;;;;;6.77;6.10;;;;;;;;;;5096396;28;20470;-76
2022/08/26 10:17:34;;;;;;;14.80;6.13;;;;;;;;;;5097123;28;20935;-74
2022/08/26 10:20:05;;;;;;;8.00;5.30;;;;;;;;;;5096977;28;20935;-75
2022/08/26 10:22:35;;;;;;;11.53;7.17;;;;;;;;;;5096682;28;20818;-75
2022/08/26 10:25:04;;;;;;;9.53;6.70;;;;;;;;;;5096532;28;20473;-75
2022/08/26 10:27:37;;;;;;;9.90;7.30;;;;;;;;;;5096535;28;20481;-74
2022/08/26 10:30:05;;;;;;;10.47;6.40;;;;;;;;;;5096755;28;20457;-74
2022/08/26 10:32:35;;;;;;;8.30;6.70;;;;;;;;;;5096637;28;20460;-77
2022/08/26 10:35:02;;;;;;;11.80;6.13;;;;;;;;;;5096453;28;20520;-75
2022/08/26 10:37:33;;;;;;;6.43;5.73;;;;;;;;;;5096522;28;20828;-73
2022/08/26 10:40:03;;;;;;;10.40;6.60;;;;;;;;;;5096472;28;20450;-75
2022/08/26 10:42:34;;;;;;;7.30;5.53;;;;;;;;;;5096375;28;20452;-75
2022/08/26 10:45:06;;;;;;;9.33;5.40;;;;;;;;;;5096179;28;20469;-74
2022/08/26 10:47:38;;;;;;;10.33;5.40;;;;;;;;;;5096202;28;20450;-75
2022/08/26 10:50:05;;;;;;;12.00;5.30;;;;;;;;;;5096574;28;21060;-75
2022/08/26 10:52:42;;;;;;;9.33;5.63;;;;;;;;;;5096434;28;20923;-74
2022/08/26 10:55:16;;;;;;;13.73;6.33;;;;;;;;;;5096160;28;20514;-74
2022/08/26 10:57:47;;;;;;;8.10;5.30;;;;;;;;;;5096291;28;20923;-75
2022/08/26 11:03:04;;;;;;;8.07;6.07;;;;;;;;;;5096066;28;20819;-76
2022/08/26 11:05:32;;;;;;;7.50;5.73;;;;;;;;;;5096129;28;20446;-75
2022/08/26 11:08:14;;;;;;;5.50;4.97;;;;;;;;;;5095929;28;20498;-74
2022/08/26 11:10:55;;;;;;;10.30;5.97;;;;;;;;;;5095877;28;20959;-76
2022/08/26 11:13:53;;;;;;;11.10;5.70;;;;;;;;;;5095390;28;20481;-75
2022/08/26 11:16:34;;;;;;;9.07;5.73;;;;;;;;;;5095677;28;20827;-75
2022/08/26 11:19:01;;;;;;;8.93;5.27;;;;;;;;;;5095786;28;20454;-75
2022/08/26 11:21:46;;;;;;;11.00;6.43;;;;;;;;;;5095566;28;20958;-74
2022/08/26 11:24:33;;;;;;;10.00;6.17;;;;;;;;;;5095470;28;20466;-74
2022/08/26 11:27:00;;;;;;;14.13;9.23;;;;;;;;;;5095656;28;20450;-74
2022/08/26 11:29:45;;;;;;;10.03;9.00;;;;;;;;;;5095446;28;20493;-74
2022/08/26 11:32:26;;;;;;;13.70;9.23;;;;;;;;;;5095347;28;20447;-74
2022/08/26 11:34:58;;;;;;;16.63;8.80;;;;;;;;;;5095396;28;20466;-74
2022/08/26 11:37:30;;;;;;;11.73;9.87;;;;;;;;;;5095399;28;20447;-73
2022/08/26 11:39:57;;;;;;;17.57;9.97;;;;;;;;;;5095372;28;20541;-74
2022/08/26 11:42:31;;;;;;;9.63;8.63;;;;;;;;;;5095439;28;20446;-74
2022/08/26 11:45:00;;;;;;;14.50;8.60;;;;;;;;;;5093532;28;20459;-75
2022/08/26 11:47:29;;;;;;;9.37;8.50;;;;;;;;;;5083115;28;20439;-74
2022/08/26 11:50:07;;;;;;;12.83;8.63;;;;;;;;;;5083681;28;20551;-75
2022/08/26 11:52:34;;;;;;;10.97;8.10;;;;;;;;;;5092106;28;20499;-75
2022/08/26 11:55:02;;;;;;;12.50;9.53;;;;;;;;;;5094905;28;20990;-75
2022/08/26 11:57:30;;;;;;;12.03;8.07;;;;;;;;;;5094976;28;20971;-75
2022/08/26 11:59:58;;;;;;;11.73;8.70;;;;;;;;;;5095102;28;20447;-74
2022/08/26 12:02:26;;;;;;;15.57;8.10;;;;;;;;;;5094863;28;20451;-74
2022/08/26 12:04:55;;;;;;;10.67;8.50;;;;;;;;;;5094759;28;20816;-74
2022/08/26 12:07:24;;;;;;;11.10;8.07;;;;;;;;;;5094697;28;20451;-75
2022/08/26 12:09:53;;;;;;;9.97;8.13;;;;;;;;;;5094809;28;20490;-74
2022/08/26 12:12:23;;;;;;;10.60;7.33;;;;;;;;;;5094869;28;20462;-74
2022/08/26 12:15:04;;;;;;;9.83;7.40;;;;;;;;;;5094205;28;20478;-74
2022/08/26 12:17:31;;;;;;;13.03;7.57;;;;;;;;;;5094652;28;20447;-74
2022/08/26 12:20:00;;;;;;;9.53;8.53;;;;;;;;;;5092256;28;20508;-75
2022/08/26 12:22:28;;;;;;;11.03;8.30;;;;;;;;;;5085007;28;20459;-75
2022/08/26 12:24:57;;;;;;;11.80;8.23;;;;;;;;;;5083422;28;20471;-74
2022/08/26 12:27:25;;;;;;;13.70;8.73;;;;;;;;;;5082235;28;20450;-75
2022/08/26 12:30:03;;;;;;;8.50;7.07;;;;;;;;;;5083348;28;20495;-74
2022/08/26 12:32:31;;;;;;;19.80;9.27;;;;;;;;;;5085528;28;20809;-76
2022/08/26 12:35:01;;;;;;;14.60;9.23;;;;;;;;;;5077950;28;20471;-75
2022/08/26 12:37:30;;;;;;;10.17;8.30;;;;;;;;;;5074101;28;20949;-77
2022/08/26 12:40:17;;;;;;;11.33;7.57;;;;;;;;;;5074033;28;20446;-74
2022/08/26 12:42:45;;;;;;;10.10;7.80;;;;;;;;;;5072891;28;20533;-75
2022/08/26 12:45:12;;;;;;;12.23;9.07;;;;;;;;;;5073288;28;20455;-75
2022/08/26 12:47:41;;;;;;;13.97;8.17;;;;;;;;;;5074014;28;20957;-76
2022/08/26 12:50:11;;;;;;;12.17;7.37;;;;;;;;;;5073784;28;20554;-75
2022/08/26 12:52:42;;;;;;;9.70;8.27;;;;;;;;;;5073395;28;20561;-75
2022/08/26 12:55:18;;;;;;;14.50;9.30;;;;;;;;;;5073539;28;20461;-75
2022/08/26 12:57:46;;;;;;;16.80;8.80;;;;;;;;;;5073840;28;20451;-76
2022/08/26 13:00:24;;;;;;;9.40;8.30;;;;;;;;;;5073577;28;20889;-75
2022/08/26 13:02:52;;;;;;;10.97;9.00;;;;;;;;;;5073601;28;20455;-75
2022/08/26 13:05:25;;;;;;;9.67;8.63;;;;;;;;;;5073307;28;20444;-75
2022/08/26 13:08:11;;;;;;;16.90;9.93;;;;;;;;;;5073482;28;20451;-75
2022/08/26 13:10:40;;;;;;;17.20;8.67;;;;;;;;;;5073502;28;20454;-75
2022/08/26 13:13:07;;;;;;;11.43;8.53;;;;;;;;;;5073068;28;20468;-76
2022/08/26 13:15:34;;;;;;;10.60;8.20;;;;;;;;;;5073233;28;20941;-75
2022/08/26 13:18:02;;;;;;;12.50;10.13;;;;;;;;;;5073286;28;20451;-75
2022/08/26 13:20:31;;;;;;;13.60;8.63;;;;;;;;;;5073197;28;20459;-75
2022/08/26 13:22:58;;;;;;;13.60;11.10;;;;;;;;;;5073277;28;20448;-75
2022/08/26 13:25:25;;;;;;;16.60;7.80;;;;;;;;;;5072940;28;20452;-75
2022/08/26 13:27:54;;;;;;;8.87;7.10;;;;;;;;;;5073093;28;20467;-76
2022/08/26 13:30:21;;;;;;;14.63;9.30;;;;;;;;;;5073164;28;20529;-75
2022/08/26 13:32:48;;;;;;;13.10;9.27;;;;;;;;;;5073158;28;20452;-75
2022/08/26 13:35:15;;;;;;;12.43;9.03;;;;;;;;;;5072711;28;20452;-75
2022/08/26 13:37:44;;;;;;;11.10;8.03;;;;;;;;;;5072823;28;20459;-75
2022/08/26 13:40:13;;;;;;;13.77;8.20;;;;;;;;;;5072331;28;20452;-75
2022/08/26 13:42:40;;;;;;;11.07;8.07;;;;;;;;;;5072668;28;20550;-75
2022/08/26 13:45:08;;;;;;;10.73;7.70;;;;;;;;;;5072659;28;20960;-75
2022/08/26 13:47:36;;;;;;;13.20;8.20;;;;;;;;;;5072697;28;20458;-75
2022/08/26 13:50:04;;;;;;;8.40;7.23;;;;;;;;;;5072808;28;20499;-75
2022/08/26 13:52:31;;;;;;;10.50;7.60;;;;;;;;;;5072772;28;20456;-75
2022/08/26 13:55:00;;;;;;;8.80;7.67;;;;;;;;;;5072489;28;20476;-75
2022/08/26 13:57:28;;;;;;;15.70;8.13;;;;;;;;;;5072603;28;20459;-75
2022/08/26 13:59:57;;;;;;;13.03;8.17;;;;;;;;;;5072677;28;20452;-75
2022/08/26 14:02:24;;;;;;;14.60;7.80;;;;;;;;;;5072712;28;20455;-75
2022/08/26 14:04:54;;;;;;;15.10;7.83;;;;;;;;;;5072581;28;20478;-75
2022/08/26 14:07:21;;;;;;;10.63;8.37;;;;;;;;;;5072597;28;20451;-74
2022/08/26 14:09:48;;;;;;;11.47;8.40;;;;;;;;;;5072841;28;20526;-75
2022/08/26 14:12:17;;;;;;;10.03;7.03;;;;;;;;;;5072711;28;20458;-75
2022/08/26 14:14:44;;;;;;;18.43;9.03;;;;;;;;;;5071807;28;20468;-75
2022/08/26 14:17:12;;;;;;;19.10;8.83;;;;;;;;;;5072607;28;20464;-74
2022/08/26 14:19:40;;;;;;;10.03;7.57;;;;;;;;;;5072498;28;20463;-75
2022/08/26 14:22:07;;;;;;;9.33;8.33;;;;;;;;;;5072574;28;20471;-75
2022/08/26 14:24:34;;;;;;;7.03;6.10;;;;;;;;;;5081996;28;20475;-75
2022/08/26 14:27:01;;;;;;;12.20;7.33;;;;;;;;;;5081268;28;20439;-75
2022/08/26 14:29:30;;;;;;;8.70;6.83;;;;;;;;;;5082860;28;20483;-74
2022/08/26 14:31:58;;;;;;;11.57;7.90;;;;;;;;;;5075112;28;20444;-74
2022/08/26 14:34:28;;;;;;;11.57;7.00;;;;;;;;;;5071815;28;21004;-75
2022/08/26 14:36:55;;;;;;;10.70;8.00;;;;;;;;;;5072534;28;20829;-75
2022/08/26 14:39:22;;;;;;;10.30;7.60;;;;;;;;;;5084101;28;20451;-75
2022/08/26 14:41:51;;;;;;;21.70;7.40;;;;;;;;;;5081438;28;20990;-75
2022/08/26 14:44:19;;;;;;;8.30;7.40;;;;;;;;;;5090782;28;20477;-75
2022/08/26 14:46:49;;;;;;;13.70;8.40;;;;;;;;;;5090826;28;20459;-74